createdAt,value
2022-09-05T00:00:23.064Z,20.7
2022-09-05T00:06:33.711Z,20.5
2022-09-05T00:12:07.271Z,20.6
2022-09-05T00:18:31.084Z,20.7
2022-09-05T00:24:36.585Z,20.7
2022-09-05T00:28:39.715Z,28.3
2022-09-05T00:34:13.267Z,20.7
2022-09-05T00:39:47.952Z,20.8
2022-09-05T00:45:20.369Z,20.7
2022-09-05T00:50:53.948Z,20.6
2022-09-05T00:56:27.525Z,20.7
2022-09-05T01:02:01.152Z,20.6
2022-09-05T01:07:34.620Z,20.5
2022-09-05T01:13:08.206Z,20.6
2022-09-05T01:18:33.570Z,20.6
2022-09-05T01:24:07.123Z,20.6
2022-09-05T01:29:40.664Z,20.5
2022-09-05T01:35:14.233Z,20.6
2022-09-05T01:40:53.675Z,20.5
2022-09-05T01:46:21.405Z,20.4
2022-09-05T01:51:54.909Z,20.5
2022-09-05T01:57:28.595Z,20.3
2022-09-05T02:03:02.075Z,20.3
2022-09-05T02:08:35.571Z,20.2
2022-09-05T02:13:40.277Z,20.2
2022-09-05T02:19:05.646Z,19.9
2022-09-05T02:24:39.213Z,20
2022-09-05T02:30:12.780Z,19.6
2022-09-05T02:35:46.309Z,19.7
2022-09-05T02:45:17.651Z,19.6
2022-09-05T02:47:30.516Z,19.8
2022-09-05T02:57:27.888Z,19.8
2022-09-05T02:58:59.306Z,19.8
2022-09-05T03:04:11.174Z,19.6
2022-09-05T03:09:44.739Z,19.3
2022-09-05T03:15:47.167Z,19.3
2022-09-05T03:21:20.731Z,19.4
2022-09-05T03:26:54.289Z,19.2
2022-09-05T03:32:27.862Z,19.3
2022-09-05T03:38:01.441Z,19.2
2022-09-05T03:43:34.948Z,19.3
2022-09-05T03:49:58.041Z,19.3
2022-09-05T03:57:24.065Z,19.3
2022-09-05T04:00:15.647Z,19.3
2022-09-05T04:08:18.711Z,19.1
2022-09-05T04:11:22.744Z,19.2
2022-09-05T04:16:25.022Z,19
2022-09-05T04:21:44.623Z,19
2022-09-05T07:10:51.426Z,26.1
2022-09-05T09:46:14.863Z,40.4
2022-09-05T09:51:19.423Z,40.7
2022-09-05T09:56:52.945Z,39.9
2022-09-05T10:03:56.575Z,39.8
2022-09-05T10:10:59.082Z,39.6
2022-09-05T10:13:33.649Z,39.7
2022-09-05T10:18:59.019Z,38.6
2022-09-05T10:25:18.467Z,37.2
2022-09-05T10:32:12.117Z,37.7
2022-09-05T10:36:17.692Z,39.4
2022-09-05T10:41:50.314Z,38.9
2022-09-05T10:47:23.948Z,37.5
2022-09-05T10:53:39.495Z,37.5
2022-09-05T11:02:15.861Z,37.5
2022-09-05T11:05:18.767Z,36.9
2022-09-05T11:10:52.227Z,37.1
2022-09-05T11:16:25.824Z,36.5
2022-09-05T11:22:04.074Z,36.5
2022-09-05T11:27:32.918Z,36.3
2022-09-05T11:39:31.107Z,35.4
2022-09-05T11:40:08.638Z,36.7
2022-09-05T11:44:13.664Z,33.8
2022-09-05T11:49:47.151Z,33.5
2022-09-05T11:55:21.746Z,33.5
2022-09-05T12:01:42.067Z,33
2022-09-05T12:07:15.551Z,32.3
2022-09-05T12:12:40.998Z,32.3
2022-09-05T12:17:43.126Z,31.8
2022-09-05T12:24:13.659Z,31.7
2022-09-05T12:29:59.768Z,31.7
2022-09-05T12:36:04.363Z,31.8
2022-09-05T12:41:44.465Z,31.2
2022-09-05T12:46:36.862Z,31.3
2022-09-05T12:52:10.425Z,31.7
2022-09-05T13:01:53.146Z,31.6
2022-09-05T13:03:27.965Z,31
2022-09-05T13:08:59.587Z,30.8
2022-09-05T13:14:58.995Z,30.9
2022-09-05T13:19:58.214Z,30.8
2022-09-05T13:25:31.762Z,30.8
2022-09-05T13:37:59.037Z,30.7
2022-09-05T13:38:08.309Z,30.6
2022-09-05T13:42:42.617Z,30.8
2022-09-05T13:48:14.908Z,30.7
2022-09-05T13:53:48.439Z,30.7
2022-09-05T13:59:22.012Z,30.8
2022-09-05T14:05:16.253Z,30.6
2022-09-05T14:10:29.133Z,30.5
2022-09-05T14:16:02.787Z,30.6
2022-09-05T14:21:36.828Z,30.6
2022-09-05T14:27:09.797Z,30.7
2022-09-05T14:37:34.805Z,30.9
2022-09-05T14:38:15.745Z,30.8
2022-09-05T14:43:47.538Z,31.1
2022-09-05T14:48:53.357Z,30.8
2022-09-05T15:02:58.665Z,30.4
2022-09-05T15:05:31.745Z,30.2
2022-09-05T15:12:20.229Z,30.3
2022-09-05T15:16:39.004Z,30.2
2022-09-05T15:22:50.405Z,30.3
2022-09-05T15:29:13.064Z,30.3
2022-09-05T15:34:17.324Z,30.4
2022-09-05T15:39:50.928Z,30.3
2022-09-05T15:45:24.440Z,30.7
2022-09-05T15:50:57.963Z,30.8
2022-09-05T15:56:31.521Z,30.5
2022-09-05T16:02:05.240Z,30.4
2022-09-05T16:10:37.267Z,30.3
2022-09-05T16:13:12.227Z,29.9
2022-09-05T16:23:27.979Z,29.7
2022-09-05T16:24:19.379Z,29.8
2022-09-05T16:30:21.773Z,29.7
2022-09-05T16:35:55.345Z,29.7
2022-09-05T16:41:28.874Z,29.6
2022-09-05T16:47:02.416Z,29.6
2022-09-05T16:52:36.015Z,29.6
2022-09-05T16:58:14.670Z,29.5
2022-09-05T17:03:43.125Z,29.4
2022-09-05T17:09:53.740Z,29.1
2022-09-05T17:15:27.286Z,28.7
2022-09-05T17:20:31.981Z,28.5
2022-09-05T17:29:27.000Z,28.3
2022-09-05T17:32:36.867Z,28.3
2022-09-05T17:38:11.822Z,28.3
2022-09-05T17:44:21.024Z,28.1
2022-09-05T17:49:54.593Z,28
2022-09-05T17:56:05.235Z,27.8
2022-09-05T18:02:15.938Z,27.6
2022-09-05T18:07:49.381Z,27.4
2022-09-05T18:13:31.890Z,27.2
2022-09-05T18:19:32.178Z,27.1
2022-09-05T18:24:32.637Z,26.9
2022-09-05T18:30:03.617Z,26.7
2022-09-05T18:35:37.332Z,26.6
2022-09-05T18:41:02.555Z,26.6
2022-09-05T18:46:36.154Z,26.6
2022-09-05T18:52:09.683Z,26.4
2022-09-05T18:57:43.242Z,26.3
2022-09-05T19:03:16.821Z,26.2
2022-09-05T19:08:50.351Z,26.1
2022-09-05T19:14:26.396Z,25.9
2022-09-05T19:20:30.928Z,25.7
2022-09-05T19:25:31.026Z,25.5
2022-09-05T19:36:53.899Z,25.4
2022-09-05T19:37:12.345Z,25.1
2022-09-05T19:47:35.373Z,25.2
2022-09-05T19:47:49.755Z,25.1
2022-09-05T19:52:41.775Z,24.9
2022-09-05T19:58:28.070Z,24.9
2022-09-05T20:03:48.875Z,24.8
2022-09-05T20:09:22.453Z,24.7
2022-09-05T20:14:56.008Z,24.6
2022-09-05T20:20:29.563Z,24.5
2022-09-05T20:26:31.998Z,24.5
2022-09-05T20:32:40.002Z,24.2
2022-09-05T20:43:17.840Z,24
2022-09-05T20:43:42.050Z,23.9
2022-09-05T20:54:06.191Z,23.7
2022-09-05T20:54:49.233Z,23.6
2022-09-05T21:00:22.202Z,23.5
2022-09-05T21:05:55.753Z,23.4
2022-09-05T21:11:29.335Z,23.3
2022-09-05T21:17:04.921Z,23.2
2022-09-05T21:22:43.138Z,23.2
2022-09-05T21:28:10.012Z,22.9
2022-09-05T21:33:45.977Z,22.8
2022-09-05T21:39:17.132Z,22.6
2022-09-05T21:47:38.172Z,22.5
2022-09-05T21:50:53.103Z,22.7
2022-09-05T21:59:33.301Z,22.6
2022-09-05T22:02:00.283Z,22.5
2022-09-05T22:07:33.797Z,22.3
2022-09-05T22:13:07.323Z,22.2
2022-09-05T22:18:17.542Z,22.2
2022-09-05T22:23:45.593Z,22.1
2022-09-05T22:29:19.147Z,22
2022-09-05T22:34:52.708Z,21.9
2022-09-05T22:40:26.273Z,22.1
2022-09-05T22:45:51.678Z,22
2022-09-05T22:51:25.178Z,22
2022-09-05T22:56:58.925Z,22.1
2022-09-05T23:02:32.332Z,21.9
2022-09-05T23:08:05.873Z,21.8
2022-09-05T23:13:39.443Z,21.8
2022-09-05T23:19:12.975Z,21.9
2022-09-05T23:24:46.550Z,21.8
2022-09-05T23:30:20.103Z,21.9
2022-09-05T23:35:53.652Z,22.1
2022-09-05T23:41:27.228Z,21.9
2022-09-05T23:46:52.581Z,21.9
2022-09-05T23:52:26.133Z,22
2022-09-05T23:57:59.701Z,21.8
